createdAt,value
2023-05-23T00:02:51.177Z,99131.47
2023-05-23T00:05:53.723Z,99123.56
2023-05-23T00:08:57.396Z,99130.22
2023-05-23T00:11:59.446Z,99126.91
2023-05-23T00:15:01.434Z,99116.91
2023-05-23T00:18:03.648Z,99123.97
2023-05-23T00:21:05.570Z,99114.81
2023-05-23T00:24:07.674Z,99116.28
2023-05-23T00:27:09.599Z,99113.78
2023-05-23T00:30:11.828Z,99111.28
2023-05-23T00:33:14.631Z,99106.50
2023-05-23T00:36:16.552Z,99106.06
2023-05-23T00:39:21.712Z,99106.50
2023-05-23T00:42:23.721Z,99114.41
2023-05-23T00:45:25.618Z,99099.81
2023-05-23T00:48:27.854Z,99106.47
2023-05-23T00:51:29.760Z,99112.72
2023-05-23T00:54:31.938Z,99107.53
2023-05-23T00:57:34.909Z,99105.66
2023-05-23T01:00:38.721Z,99104.19
2023-05-23T01:03:40.832Z,99102.53
2023-05-23T01:06:47.101Z,99096.50
2023-05-23T01:09:50.287Z,99100.25
2023-05-23T01:13:26.166Z,99100.66
2023-05-23T01:16:31.105Z,99096.50
2023-05-23T01:19:56.789Z,99097.34
2023-05-23T01:23:01.173Z,99097.34
2023-05-23T01:26:40.663Z,99101.09
2023-05-23T01:29:47.101Z,99092.34
2023-05-23T01:32:52.712Z,99098.38
2023-05-23T01:35:58.401Z,99100.03
2023-05-23T01:39:00.294Z,99097.53
2023-05-23T01:42:03.687Z,99096.50
2023-05-23T01:45:08.303Z,99097.34
2023-05-23T01:48:12.723Z,99100.66
2023-05-23T01:51:15.269Z,99095.25
2023-05-23T01:54:19.953Z,99101.50
2023-05-23T01:57:24.514Z,99098.59
2023-05-23T02:00:26.809Z,99100.44
2023-05-23T02:03:28.820Z,99098.38
2023-05-23T02:06:31.931Z,99099.81
2023-05-23T02:09:33.804Z,99105.03
2023-05-23T02:12:36.088Z,99095.66
2023-05-23T02:15:38.018Z,99093.56
2023-05-23T02:18:39.950Z,99101.47
2023-05-23T02:21:41.894Z,99088.38
2023-05-23T02:24:43.852Z,99095.44
2023-05-23T02:27:48.165Z,99092.75
2023-05-23T02:30:50.026Z,99095.88
2023-05-23T02:33:52.060Z,99085.88
2023-05-23T02:36:54.563Z,99089.81
2023-05-23T02:39:57.033Z,99089.41
2023-05-23T02:42:59.021Z,99091.69
2023-05-23T02:46:01.029Z,99092.91
2023-05-23T02:49:02.941Z,99089.59
2023-05-23T02:52:06.800Z,99086.06
2023-05-23T02:55:09.241Z,99090.63
2023-05-23T02:58:16.430Z,99093.97
2023-05-23T03:01:18.829Z,99089.19
2023-05-23T03:04:21.519Z,99086.69
2023-05-23T03:07:28.257Z,99083.78
2023-05-23T03:10:31.099Z,99078.97
2023-05-23T03:13:32.995Z,99077.72
2023-05-23T03:16:35.269Z,99075.00
2023-05-23T03:19:37.452Z,99084.16
2023-05-23T03:22:39.512Z,99080.19
2023-05-23T03:25:43.170Z,99078.94
2023-05-23T03:28:45.148Z,99082.88
2023-05-23T03:31:47.018Z,99075.16
2023-05-23T03:34:49.491Z,99073.88
2023-05-23T03:37:51.374Z,99076.34
2023-05-23T03:40:54.094Z,99078.84
2023-05-23T03:43:56.038Z,99081.56
2023-05-23T03:46:57.931Z,99080.91
2023-05-23T03:49:59.919Z,99079.66
2023-05-23T03:53:02.919Z,99076.72
2023-05-23T03:56:05.278Z,99079.22
2023-05-23T03:59:07.697Z,99078.16
2023-05-23T04:02:09.741Z,99080.44
2023-05-23T04:05:13.103Z,99082.94
2023-05-23T04:08:15.908Z,99078.53
2023-05-23T04:11:17.931Z,99081.66
2023-05-23T04:14:22.580Z,99078.28
2023-05-23T04:17:25.864Z,99081.81
2023-05-23T04:20:28.314Z,99084.72
2023-05-23T04:23:30.541Z,99085.09
2023-05-23T04:26:33.156Z,99088.66
2023-05-23T04:29:36.133Z,99087.00
2023-05-23T04:32:38.437Z,99089.09
2023-05-23T04:35:40.948Z,99095.16
2023-05-23T04:38:43.807Z,99097.88
2023-05-23T04:41:45.725Z,99101.00
2023-05-23T04:44:56.896Z,99104.34
2023-05-23T04:48:17.089Z,99092.66
2023-05-23T04:51:21.779Z,99096.63
2023-05-23T04:54:29.362Z,99101.66
2023-05-23T04:57:34.692Z,99101.91
2023-05-23T05:00:37.471Z,99105.88
2023-05-23T05:03:40.070Z,99106.13
2023-05-23T05:06:42.065Z,99107.63
2023-05-23T05:09:45.001Z,99104.13
2023-05-23T05:12:49.666Z,99112.88
2023-05-23T05:15:52.943Z,99102.88
2023-05-23T05:18:55.203Z,99112.06
2023-05-23T05:21:57.878Z,99111.66
2023-05-23T05:24:59.707Z,99112.06
2023-05-23T05:28:08.517Z,99115.19
2023-05-23T05:31:15.583Z,99112.91
2023-05-23T05:34:18.524Z,99114.56
2023-05-23T05:37:21.231Z,99115.81
2023-05-23T05:40:23.405Z,99111.00
2023-05-23T05:43:26.752Z,99110.19
2023-05-23T05:46:29.062Z,99114.56
2023-05-23T05:49:31.510Z,99113.28
2023-05-23T05:52:34.770Z,99107.88
2023-05-23T05:55:38.188Z,99113.69
2023-05-23T05:58:40.213Z,99118.91
2023-05-23T06:01:45.047Z,99118.06
2023-05-23T06:04:47.493Z,99119.50
2023-05-23T06:07:50.255Z,99115.56
2023-05-23T06:10:52.305Z,99111.81
2023-05-23T06:13:54.473Z,99118.88
2023-05-23T06:16:56.415Z,99113.25
2023-05-23T06:19:58.449Z,99118.66
2023-05-23T06:23:01.825Z,99119.28
2023-05-23T06:26:03.790Z,99118.22
2023-05-23T06:29:05.756Z,99128.84
2023-05-23T06:32:10.075Z,99113.66
2023-05-23T06:35:12.116Z,99108.63
2023-05-23T06:38:15.268Z,99112.19
2023-05-23T06:41:18.887Z,99106.34
2023-05-23T06:44:20.826Z,99112.97
2023-05-23T06:47:27.905Z,99110.69
2023-05-23T06:50:29.855Z,99107.72
2023-05-23T06:53:32.079Z,99102.91
2023-05-23T06:56:35.094Z,99102.06
2023-05-23T06:59:37.185Z,99103.69
2023-05-23T07:02:40.011Z,99099.72
2023-05-23T07:05:42.462Z,99100.53
2023-05-23T07:08:46.865Z,99095.69
2023-05-23T07:11:50.320Z,99088.97
2023-05-23T07:14:52.469Z,99085.59
2023-05-23T07:17:56.089Z,99089.25
2023-05-23T07:20:58.212Z,99095.84
2023-05-23T07:24:00.650Z,99089.66
2023-05-23T07:27:03.941Z,99088.78
2023-05-23T07:30:09.822Z,99084.91
2023-05-23T07:33:13.120Z,99086.00
2023-05-23T07:36:15.325Z,99079.81
2023-05-23T07:39:22.134Z,99077.34
2023-05-23T07:42:25.453Z,99073.44
2023-05-23T07:45:27.329Z,99075.78
2023-05-23T07:48:29.257Z,99080.78
2023-05-23T07:51:31.727Z,99067.78
2023-05-23T07:54:35.207Z,99072.16
2023-05-23T07:57:38.476Z,99076.28
2023-05-23T08:00:41.943Z,99082.00
2023-05-23T08:03:54.295Z,99073.84
2023-05-23T08:07:06.057Z,99076.56
2023-05-23T08:10:18.132Z,99073.25
2023-05-23T08:13:20.690Z,99066.50
2023-05-23T08:16:42.752Z,99074.78
2023-05-23T08:19:52.624Z,99077.66
2023-05-23T08:22:58.265Z,99065.78
2023-05-23T08:26:00.451Z,99069.38
2023-05-23T08:29:02.715Z,99074.56
2023-05-23T08:32:06.402Z,99069.81
2023-05-23T08:35:09.678Z,99074.06
2023-05-23T08:38:13.276Z,99076.69
2023-05-23T08:41:27.204Z,99084.50
2023-05-23T08:44:36.086Z,99078.44
2023-05-23T08:47:41.150Z,99073.72
2023-05-23T08:50:47.672Z,99062.97
2023-05-23T08:53:53.720Z,99070.88
2023-05-23T08:56:57.782Z,99061.94
2023-05-23T09:00:01.146Z,99062.41
2023-05-23T09:03:04.830Z,99058.31
2023-05-23T09:06:29.257Z,99061.66
2023-05-23T09:09:34.053Z,99062.16
2023-05-23T09:12:38.140Z,99061.66
2023-05-23T09:15:56.937Z,99054.41
2023-05-23T09:18:59.611Z,99056.72
2023-05-23T09:22:04.310Z,99050.63
2023-05-23T09:25:11.771Z,99060.06
2023-05-23T09:28:16.037Z,99052.91
2023-05-23T09:31:18.680Z,99052.09
2023-05-23T09:34:20.617Z,99051.75
2023-05-23T09:37:24.605Z,99044.16
2023-05-23T09:40:33.278Z,99039.94
2023-05-23T09:43:39.029Z,99043.72
2023-05-23T09:46:41.489Z,99049.94
2023-05-23T09:49:46.570Z,99045.13
2023-05-23T09:52:48.605Z,99041.50
2023-05-23T09:55:56.145Z,99045.63
2023-05-23T09:58:59.396Z,99042.81
2023-05-23T10:02:04.698Z,99044.63
2023-05-23T10:05:09.278Z,99047.28
2023-05-23T10:08:16.332Z,99044.38
2023-05-23T10:11:38.252Z,99038.16
2023-05-23T10:14:45.564Z,99044.72
2023-05-23T10:18:05.314Z,99040.16
2023-05-23T10:21:12.513Z,99047.66
2023-05-23T10:24:14.739Z,99034.66
2023-05-23T10:27:16.578Z,99038.56
2023-05-23T10:30:18.862Z,99030.81
2023-05-23T10:33:22.681Z,99041.59
2023-05-23T10:36:40.957Z,99036.34
2023-05-23T10:39:44.445Z,99026.56
2023-05-23T10:43:03.121Z,99032.53
2023-05-23T10:46:05.167Z,99035.34
2023-05-23T10:49:08.793Z,99035.44
2023-05-23T10:52:13.457Z,99033.88
2023-05-23T10:55:17.819Z,99034.53
2023-05-23T10:58:23.093Z,99027.03
2023-05-23T11:01:27.167Z,99031.97
2023-05-23T11:04:29.730Z,99038.69
2023-05-23T11:07:32.829Z,99035.09
2023-05-23T11:11:01.868Z,99031.72
2023-05-23T11:14:03.843Z,99038.06
2023-05-23T11:17:30.011Z,99037.28
2023-05-23T11:20:32.499Z,99039.91
2023-05-23T11:23:42.041Z,99030.00
2023-05-23T11:27:04.135Z,99028.34
2023-05-23T11:30:09.734Z,99023.56
2023-05-23T11:33:14.075Z,99027.44
2023-05-23T11:36:16.077Z,99023.91
2023-05-23T11:39:19.501Z,99019.72
2023-05-23T11:42:22.675Z,99017.78
2023-05-23T11:45:25.332Z,99013.41
2023-05-23T11:48:27.244Z,99018.47
2023-05-23T11:51:29.221Z,99017.28
2023-05-23T11:54:31.252Z,99014.47
2023-05-23T11:57:33.116Z,99019.47
2023-05-23T12:00:34.988Z,99020.31
2023-05-23T12:03:50.510Z,99024.44
2023-05-23T12:06:52.501Z,99018.81
2023-05-23T12:09:57.460Z,99013.91
2023-05-23T12:12:59.488Z,99005.53
2023-05-23T12:16:02.700Z,99005.63
2023-05-23T12:19:06.655Z,99006.13
2023-05-23T12:22:08.843Z,99012.31
2023-05-23T12:25:11.291Z,99020.03
2023-05-23T12:28:13.915Z,99013.72
2023-05-23T12:31:21.409Z,99011.56
2023-05-23T12:34:23.540Z,99006.94
2023-05-23T12:37:25.877Z,99009.44
2023-05-23T12:40:28.567Z,99010.25
2023-05-23T12:43:30.468Z,99011.22
2023-05-23T12:46:32.452Z,99009.91
2023-05-23T12:49:34.296Z,99008.00
2023-05-23T12:52:37.317Z,99003.13
2023-05-23T12:55:39.484Z,99004.13
2023-05-23T12:58:41.456Z,99004.38
2023-05-23T13:01:43.426Z,99001.56
2023-05-23T13:04:45.377Z,99006.13
2023-05-23T13:07:47.210Z,99006.00
2023-05-23T13:10:49.567Z,99005.34
2023-05-23T13:13:51.717Z,98992.03
2023-05-23T13:16:53.632Z,98993.38
2023-05-23T13:19:55.607Z,99003.22
2023-05-23T13:22:58.115Z,99004.28
2023-05-23T13:26:00.035Z,98999.66
2023-05-23T13:29:01.965Z,99007.41
2023-05-23T13:32:03.871Z,98999.66
2023-05-23T13:35:06.408Z,98996.16
2023-05-23T13:38:08.400Z,98987.66
2023-05-23T13:41:10.449Z,98991.53
2023-05-23T13:44:12.330Z,98991.38
2023-05-23T13:47:15.732Z,98994.81
2023-05-23T13:50:17.991Z,98987.66
2023-05-23T13:53:21.532Z,98991.84
2023-05-23T13:56:24.520Z,98986.50
2023-05-23T13:59:27.043Z,98985.19
2023-05-23T14:02:30.394Z,98984.41
2023-05-23T14:05:32.387Z,98995.91
2023-05-23T14:08:34.783Z,98986.91
2023-05-23T14:11:36.578Z,98987.28
2023-05-23T14:14:38.430Z,98985.13
2023-05-23T14:17:40.451Z,98976.41
2023-05-23T14:20:42.551Z,98975.78
2023-05-23T14:23:44.535Z,98978.44
2023-05-23T14:26:47.048Z,98979.59
2023-05-23T14:29:49.878Z,98978.22
2023-05-23T14:32:51.912Z,98977.72
2023-05-23T14:35:53.902Z,98972.47
2023-05-23T14:38:56.011Z,98971.09
2023-05-23T14:41:57.845Z,98964.16
2023-05-23T14:44:59.794Z,98965.19
2023-05-23T14:48:02.431Z,98960.66
2023-05-23T14:51:04.654Z,98957.59
2023-05-23T14:54:06.742Z,98961.09
2023-05-23T14:57:09.418Z,98959.81
2023-05-23T15:00:11.801Z,98958.22
2023-05-23T15:03:14.747Z,98955.53
2023-05-23T15:06:16.671Z,98953.69
2023-05-23T15:09:19.175Z,98953.16
2023-05-23T15:12:21.072Z,98951.38
2023-05-23T15:15:23.746Z,98950.94
2023-05-23T15:18:38.883Z,98952.69
2023-05-23T15:21:50.522Z,98944.09
2023-05-23T15:24:53.428Z,98944.50
2023-05-23T15:27:56.367Z,98946.47
2023-05-23T15:30:59.134Z,98951.84
2023-05-23T15:34:01.062Z,98950.66
2023-05-23T15:37:02.871Z,98945.59
2023-05-23T15:40:05.197Z,98955.34
2023-05-23T15:43:06.914Z,98955.25
2023-05-23T15:46:08.856Z,98950.38
2023-05-23T15:49:21.592Z,98953.44
2023-05-23T15:52:28.243Z,98956.25
2023-05-23T15:55:31.068Z,98964.19
2023-05-23T15:58:32.992Z,98965.84
2023-05-23T16:01:35.216Z,98959.97
2023-05-23T16:04:37.025Z,98958.53
2023-05-23T16:07:38.972Z,98953.34
2023-05-23T16:10:40.878Z,98957.03
2023-05-23T16:13:42.694Z,98947.13
2023-05-23T16:16:44.530Z,98948.91
2023-05-23T16:19:46.454Z,98946.63
2023-05-23T16:22:48.297Z,98945.44
2023-05-23T16:25:50.151Z,98942.97
2023-05-23T16:28:52.167Z,98943.69
2023-05-23T16:31:54.034Z,98946.75
2023-05-23T16:34:55.905Z,98944.28
2023-05-23T16:37:57.686Z,98939.91
2023-05-23T16:40:59.529Z,98939.78
2023-05-23T16:44:01.362Z,98943.59
2023-05-23T16:47:03.141Z,98944.56
2023-05-23T16:50:05.532Z,98941.00
2023-05-23T16:53:07.273Z,98948.84
2023-05-23T16:56:09.200Z,98963.41
2023-05-23T16:59:11.080Z,98957.13
2023-05-23T17:02:14.703Z,98949.34
2023-05-23T17:05:16.541Z,98957.75
2023-05-23T17:08:18.386Z,98955.13
2023-05-23T17:11:20.321Z,98957.03
2023-05-23T17:14:22.143Z,98953.72
2023-05-23T17:17:24.030Z,98957.16
2023-05-23T17:20:27.110Z,98948.88
2023-05-23T17:23:29.148Z,98949.34
2023-05-23T17:26:31.064Z,98954.69
2023-05-23T17:29:32.904Z,98955.75
2023-05-23T17:32:35.475Z,98960.84
2023-05-23T17:35:37.474Z,98961.31
2023-05-23T17:38:39.362Z,98963.44
2023-05-23T17:41:41.665Z,98962.25
2023-05-23T17:44:44.575Z,98966.75
2023-05-23T17:47:47.212Z,98975.16
2023-05-23T17:50:49.233Z,98968.28
2023-05-23T17:53:53.709Z,98977.75
2023-05-23T17:56:55.752Z,98973.00
2023-05-23T17:59:58.180Z,98970.16
2023-05-23T18:03:00.985Z,98966.13
2023-05-23T18:06:02.841Z,98978.97
2023-05-23T18:09:05.207Z,98978.25
2023-05-23T18:12:07.118Z,98981.31
2023-05-23T18:15:09.818Z,98981.63
2023-05-23T18:18:12.180Z,98971.91
2023-05-23T18:21:14.028Z,98982.28
2023-05-23T18:24:16.570Z,98976.72
2023-05-23T18:27:18.346Z,98976.22
2023-05-23T18:30:20.195Z,98972.97
2023-05-23T18:33:22.263Z,98982.28
2023-05-23T18:36:24.172Z,98981.75
2023-05-23T18:39:26.394Z,98974.94
2023-05-23T18:42:29.675Z,98972.78
2023-05-23T18:45:31.567Z,98980.53
2023-05-23T18:48:35.659Z,98989.81
2023-05-23T18:51:38.323Z,98993.66
2023-05-23T18:54:40.191Z,98999.16
2023-05-23T18:57:42.065Z,98993.41
2023-05-23T19:00:44.740Z,98997.25
2023-05-23T19:03:46.784Z,99005.69
2023-05-23T19:06:49.597Z,98995.13
2023-05-23T19:09:51.473Z,99007.91
2023-05-23T19:12:53.288Z,99005.25
2023-05-23T19:15:55.315Z,99005.91
2023-05-23T19:18:57.831Z,99009.69
2023-05-23T19:22:00.789Z,98995.59
2023-05-23T19:25:02.636Z,98996.03
2023-05-23T19:28:04.467Z,99001.88
2023-05-23T19:31:07.758Z,99002.53
2023-05-23T19:34:09.634Z,98998.22
2023-05-23T19:37:11.480Z,98997.22
2023-05-23T19:40:13.576Z,98997.25
2023-05-23T19:43:15.796Z,99000.41
2023-05-23T19:46:17.715Z,99001.47
2023-05-23T19:49:20.928Z,98995.22
2023-05-23T19:52:22.759Z,98997.75
2023-05-23T19:55:24.718Z,99004.22
2023-05-23T19:58:26.588Z,99005.88
2023-05-23T20:01:30.804Z,98997.75
2023-05-23T20:04:32.681Z,99001.06
2023-05-23T20:07:36.459Z,98999.19
2023-05-23T20:10:38.389Z,99007.94
2023-05-23T20:13:40.536Z,99002.28
2023-05-23T20:16:42.491Z,99003.13
2023-05-23T20:19:44.407Z,99003.94
2023-05-23T20:22:46.235Z,99010.41
2023-05-23T20:25:48.031Z,99004.38
2023-05-23T20:28:50.397Z,99008.34
2023-05-23T20:31:52.287Z,98999.41
2023-05-23T20:34:54.130Z,99002.13
2023-05-23T20:37:55.972Z,99000.22
2023-05-23T20:41:05.529Z,98994.81
2023-05-23T20:44:12.380Z,99001.69
2023-05-23T20:47:15.503Z,98994.81
2023-05-23T20:50:19.143Z,98999.19
2023-05-23T20:53:21.121Z,98990.22
2023-05-23T20:56:24.566Z,98996.25
2023-05-23T20:59:26.491Z,98997.91
2023-05-23T21:02:28.468Z,98993.13
2023-05-23T21:05:30.419Z,98987.69
2023-05-23T21:08:34.471Z,98997.69
2023-05-23T21:11:36.751Z,98992.50
2023-05-23T21:14:38.550Z,98997.09
2023-05-23T21:17:40.476Z,98994.19
2023-05-23T21:20:42.628Z,98995.69
2023-05-23T21:23:44.793Z,98992.19
2023-05-23T21:26:46.603Z,98989.31
2023-05-23T21:29:48.567Z,98983.91
2023-05-23T21:32:50.725Z,98973.97
2023-05-23T21:35:52.712Z,98968.38
2023-05-23T21:38:54.488Z,98965.69
2023-05-23T21:41:56.324Z,98966.34
2023-05-23T21:44:58.158Z,98966.13
2023-05-23T21:48:00.011Z,98971.34
2023-05-23T21:51:01.833Z,98974.09
2023-05-23T21:54:03.832Z,98972.03
2023-05-23T21:57:05.770Z,98968.28
2023-05-23T22:00:12.406Z,98966.84
2023-05-23T22:03:17.479Z,98972.06
2023-05-23T22:06:19.451Z,98972.72
2023-05-23T22:09:21.224Z,98968.78
2023-05-23T22:12:23.158Z,98977.09
2023-05-23T22:15:24.954Z,98974.59
2023-05-23T22:18:30.593Z,98977.31
2023-05-23T22:21:39.398Z,98987.50
2023-05-23T22:24:41.176Z,98987.50
2023-05-23T22:27:43.031Z,98990.81
2023-05-23T22:30:44.901Z,98990.63
2023-05-23T22:33:46.889Z,98993.09
2023-05-23T22:36:48.660Z,98999.97
2023-05-23T22:39:50.414Z,98996.84
2023-05-23T22:42:52.162Z,99004.31
2023-05-23T22:45:53.938Z,98997.66
2023-05-23T22:48:55.753Z,99005.56
2023-05-23T22:51:57.852Z,99004.09
2023-05-23T22:54:59.771Z,99000.75
2023-05-23T22:58:01.982Z,99005.34
2023-05-23T23:01:03.875Z,99015.34
2023-05-23T23:04:05.722Z,99017.22
2023-05-23T23:07:08.804Z,99015.94
2023-05-23T23:10:10.688Z,99009.72
2023-05-23T23:13:14.114Z,99015.13
2023-05-23T23:16:19.374Z,99016.78
2023-05-23T23:19:21.893Z,99017.59
2023-05-23T23:22:24.718Z,99015.94
2023-05-23T23:25:26.937Z,99024.69
2023-05-23T23:28:28.771Z,99009.28
2023-05-23T23:31:30.810Z,99008.25
2023-05-23T23:34:32.753Z,99016.34
2023-05-23T23:37:34.758Z,99005.31
2023-05-23T23:40:36.672Z,99005.94
2023-05-23T23:43:38.473Z,98994.91
2023-05-23T23:46:40.305Z,98996.56
2023-05-23T23:49:42.333Z,98998.44
2023-05-23T23:52:44.276Z,98991.56
2023-05-23T23:55:46.352Z,98995.53
2023-05-23T23:58:48.253Z,98989.72
